Time;durP1;ratioP1;P1;durP2;ratioP2;P2;SDS_P1;SDS_P2;PMS_P1;PMS_P2;Temp;Humidity;BMP_temperature;BMP_pressure;BME280_temperature;BME280_humidity;BME280_pressure;Samples;Min_cycle;Max_cycle;Signal;HPM_P1;HPM_P2
2022/03/20 00:02:18;;;;;;;25.08;8.85;;;;;;;;;;5095640;28;20074;-49
2022/03/20 00:04:44;;;;;;;14.10;6.78;;;;;;;;;;5097151;27;20423;-48
2022/03/20 00:07:11;;;;;;;9.75;7.43;;;;;;;;;;5095541;28;20663;-46
2022/03/20 00:09:37;;;;;;;16.00;9.05;;;;;;;;;;5096470;28;20039;-47
2022/03/20 00:12:02;;;;;;;12.70;7.50;;;;;;;;;;5095963;28;20059;-44
2022/03/20 00:14:28;;;;;;;11.93;6.53;;;;;;;;;;5100015;28;20100;-48
2022/03/20 00:16:53;;;;;;;23.88;8.75;;;;;;;;;;5098003;28;20104;-45
2022/03/20 00:19:19;;;;;;;11.68;7.97;;;;;;;;;;5095667;28;20686;-46
2022/03/20 00:21:44;;;;;;;22.55;8.30;;;;;;;;;;5097075;28;20043;-46
2022/03/20 00:24:10;;;;;;;14.60;10.30;;;;;;;;;;5095212;28;20043;-46
2022/03/20 00:26:35;;;;;;;18.50;10.38;;;;;;;;;;5098873;28;20124;-49
2022/03/20 00:29:00;;;;;;;20.73;9.38;;;;;;;;;;5096469;28;20036;-47
2022/03/20 00:31:28;;;;;;;19.77;9.77;;;;;;;;;;5097113;28;20498;-50
2022/03/20 00:33:53;;;;;;;12.50;6.78;;;;;;;;;;5098915;28;20052;-45
2022/03/20 00:36:19;;;;;;;9.77;8.77;;;;;;;;;;5096858;28;20418;-47
2022/03/20 00:38:44;;;;;;;10.55;6.18;;;;;;;;;;5097714;28;20613;-47
2022/03/20 00:41:09;;;;;;;19.67;7.13;;;;;;;;;;5096552;28;20050;-45
2022/03/20 00:43:36;;;;;;;13.50;6.07;;;;;;;;;;5095068;28;20399;-46
2022/03/20 00:46:01;;;;;;;15.60;7.38;;;;;;;;;;5097334;28;20047;-50
2022/03/20 00:48:27;;;;;;;29.90;11.50;;;;;;;;;;5094526;28;20055;-45
2022/03/20 00:50:52;;;;;;;16.95;11.68;;;;;;;;;;5095856;28;20066;-46
2022/03/20 00:53:17;;;;;;;19.02;10.45;;;;;;;;;;5094895;28;20036;-47
2022/03/20 00:55:43;;;;;;;11.90;8.23;;;;;;;;;;5096631;28;20130;-45
2022/03/20 00:58:10;;;;;;;22.60;7.78;;;;;;;;;;5097041;28;20556;-44
2022/03/20 01:00:35;;;;;;;17.10;7.35;;;;;;;;;;5095303;28;20044;-49
2022/03/20 01:03:01;;;;;;;13.00;7.90;;;;;;;;;;5096200;28;20594;-50
2022/03/20 01:05:27;;;;;;;17.83;7.78;;;;;;;;;;5096162;28;20057;-48
2022/03/20 01:07:52;;;;;;;11.00;7.25;;;;;;;;;;5094432;28;20063;-49
2022/03/20 01:10:17;;;;;;;18.35;7.95;;;;;;;;;;5093616;28;20453;-46
2022/03/20 01:12:43;;;;;;;11.23;5.50;;;;;;;;;;5097226;28;20047;-47
2022/03/20 01:15:10;;;;;;;9.38;6.88;;;;;;;;;;5094735;28;20146;-47
2022/03/20 01:17:35;;;;;;;10.77;7.38;;;;;;;;;;5095785;28;20105;-46
2022/03/20 01:20:01;;;;;;;9.68;5.70;;;;;;;;;;5098189;28;20043;-50
2022/03/20 01:22:26;;;;;;;6.95;6.15;;;;;;;;;;5095838;28;20402;-46
2022/03/20 01:24:52;;;;;;;13.90;9.52;;;;;;;;;;5096345;28;20044;-49
2022/03/20 01:27:17;;;;;;;13.80;7.45;;;;;;;;;;5099392;28;20690;-45
2022/03/20 01:29:42;;;;;;;16.48;6.45;;;;;;;;;;5097631;28;20048;-47
2022/03/20 01:32:10;;;;;;;18.40;5.82;;;;;;;;;;5092613;28;20147;-48
2022/03/20 01:34:35;;;;;;;14.02;6.65;;;;;;;;;;5092426;28;20047;-50
2022/03/20 01:37:01;;;;;;;9.75;6.47;;;;;;;;;;5094325;28;20040;-48
2022/03/20 01:39:26;;;;;;;9.45;5.68;;;;;;;;;;5093363;28;20048;-47
2022/03/20 01:41:51;;;;;;;8.93;5.95;;;;;;;;;;5095422;28;20035;-49
2022/03/20 01:44:16;;;;;;;9.40;6.90;;;;;;;;;;5092951;28;20040;-51
2022/03/20 01:46:42;;;;;;;17.08;6.05;;;;;;;;;;5094242;28;20151;-44
2022/03/20 01:49:07;;;;;;;8.93;6.35;;;;;;;;;;5094741;28;20044;-45
2022/03/20 01:54:16;;;;;;;9.98;6.43;;;;;;;;;;5092194;28;20498;-48
2022/03/20 01:56:46;;;;;;;14.02;6.80;;;;;;;;;;5093566;28;20040;-52
2022/03/20 01:59:11;;;;;;;18.35;8.52;;;;;;;;;;5097328;28;20094;-51
2022/03/20 02:01:36;;;;;;;9.40;6.07;;;;;;;;;;5095209;28;20095;-48
2022/03/20 02:04:02;;;;;;;12.43;6.63;;;;;;;;;;5090351;28;20051;-46
2022/03/20 02:06:27;;;;;;;15.40;5.88;;;;;;;;;;5093577;28;20557;-52
2022/03/20 02:08:54;;;;;;;9.98;6.07;;;;;;;;;;5093949;28;20043;-48
2022/03/20 02:11:20;;;;;;;16.55;7.50;;;;;;;;;;5098705;28;20067;-44
2022/03/20 02:13:45;;;;;;;15.95;6.68;;;;;;;;;;5092408;28;20082;-49
2022/03/20 02:16:11;;;;;;;11.68;6.50;;;;;;;;;;5093313;28;20163;-50
2022/03/20 02:18:37;;;;;;;12.50;5.53;;;;;;;;;;5097746;28;20039;-50
2022/03/20 02:21:03;;;;;;;16.08;7.50;;;;;;;;;;5098285;28;20062;-51
2022/03/20 02:23:28;;;;;;;32.03;6.63;;;;;;;;;;5100745;28;20530;-49
2022/03/20 02:25:54;;;;;;;4.88;2.58;;;;;;;;;;5103529;28;20050;-46
2022/03/20 02:28:19;;;;;;;14.32;4.65;;;;;;;;;;5102786;28;20044;-49
2022/03/20 02:30:46;;;;;;;13.20;5.80;;;;;;;;;;5099393;28;20556;-46
2022/03/20 02:33:12;;;;;;;13.20;5.88;;;;;;;;;;5094828;28;20613;-47
2022/03/20 02:35:39;;;;;;;7.22;4.40;;;;;;;;;;5096004;28;20049;-47
2022/03/20 02:38:07;;;;;;;7.22;5.55;;;;;;;;;;5098281;28;20043;-45
2022/03/20 02:40:32;;;;;;;8.05;4.82;;;;;;;;;;5100289;28;20558;-46
2022/03/20 02:43:01;;;;;;;16.05;5.45;;;;;;;;;;5096335;28;20124;-46
2022/03/20 02:45:30;;;;;;;5.97;4.10;;;;;;;;;;5100526;28;20044;-48
2022/03/20 02:47:56;;;;;;;19.90;4.63;;;;;;;;;;5099022;28;20044;-47
2022/03/20 02:50:24;;;;;;;20.60;4.50;;;;;;;;;;5102801;28;20048;-48
2022/03/20 02:52:49;;;;;;;7.55;3.03;;;;;;;;;;5097382;28;20114;-50
2022/03/20 02:55:19;;;;;;;13.52;4.38;;;;;;;;;;5098367;28;20523;-48
2022/03/20 02:57:45;;;;;;;5.65;2.92;;;;;;;;;;5097744;28;20044;-47
2022/03/20 03:00:11;;;;;;;7.28;4.13;;;;;;;;;;5095218;28;20040;-48
2022/03/20 03:02:38;;;;;;;6.20;3.38;;;;;;;;;;5099239;28;20110;-46
2022/03/20 03:05:03;;;;;;;5.03;2.90;;;;;;;;;;5097053;28;20036;-45
2022/03/20 03:07:29;;;;;;;5.57;3.88;;;;;;;;;;5093807;28;20032;-46
2022/03/20 03:12:39;;;;;;;7.28;5.15;;;;;;;;;;5097870;28;20078;-47
2022/03/20 03:15:20;;;;;;;6.75;4.00;;;;;;;;;;5101546;28;20063;-48
2022/03/20 03:17:46;;;;;;;16.83;5.17;;;;;;;;;;5099636;28;20526;-49
2022/03/20 03:20:11;;;;;;;12.13;4.28;;;;;;;;;;5100309;28;20612;-45
2022/03/20 03:22:37;;;;;;;7.72;4.28;;;;;;;;;;5096843;28;20075;-46
2022/03/20 03:25:02;;;;;;;4.75;2.70;;;;;;;;;;5099896;28;20055;-45
2022/03/20 03:27:27;;;;;;;5.18;2.85;;;;;;;;;;5096874;28;20403;-47
2022/03/20 03:29:53;;;;;;;6.28;3.03;;;;;;;;;;5097193;28;20487;-47
2022/03/20 03:32:18;;;;;;;7.55;3.85;;;;;;;;;;5100144;28;20051;-50
2022/03/20 03:37:28;;;;;;;11.27;5.28;;;;;;;;;;5097041;28;20082;-46
2022/03/20 03:39:53;;;;;;;6.85;4.80;;;;;;;;;;5093832;28;20094;-48
2022/03/20 03:42:19;;;;;;;15.18;6.95;;;;;;;;;;5097869;28;20047;-47
2022/03/20 03:44:45;;;;;;;11.65;5.55;;;;;;;;;;5097823;28;20043;-49
2022/03/20 03:47:10;;;;;;;11.80;4.88;;;;;;;;;;5099068;28;20146;-50
2022/03/20 03:49:36;;;;;;;11.18;6.00;;;;;;;;;;5099955;28;20059;-50
2022/03/20 03:52:01;;;;;;;13.80;6.28;;;;;;;;;;5096214;28;20051;-48
2022/03/20 03:54:27;;;;;;;26.40;5.22;;;;;;;;;;5096831;28;20124;-50
2022/03/20 03:56:53;;;;;;;16.10;7.43;;;;;;;;;;5098674;28;20456;-51
2022/03/20 03:59:18;;;;;;;14.57;6.18;;;;;;;;;;5096171;28;20498;-47
2022/03/20 04:01:43;;;;;;;6.90;4.28;;;;;;;;;;5099444;28;20050;-47
2022/03/20 04:04:09;;;;;;;7.75;4.57;;;;;;;;;;5097960;28;20066;-45
2022/03/20 04:06:34;;;;;;;10.43;5.60;;;;;;;;;;5096761;28;20122;-46
2022/03/20 04:09:00;;;;;;;11.15;5.72;;;;;;;;;;5096795;28;20048;-50
2022/03/20 04:11:25;;;;;;;9.20;4.82;;;;;;;;;;5094721;28;20134;-48
2022/03/20 04:13:50;;;;;;;12.45;5.47;;;;;;;;;;5096926;28;20475;-45
2022/03/20 04:16:16;;;;;;;11.98;5.25;;;;;;;;;;5098295;28;20050;-48
2022/03/20 04:18:41;;;;;;;6.93;4.00;;;;;;;;;;5096164;28;20054;-49
2022/03/20 04:21:06;;;;;;;12.02;5.18;;;;;;;;;;5098322;28;20136;-48
2022/03/20 04:23:49;;;;;;;7.50;5.10;;;;;;;;;;5098363;28;20040;-50
2022/03/20 04:26:18;;;;;;;13.10;5.28;;;;;;;;;;5097511;28;20042;-47
2022/03/20 04:28:44;;;;;;;8.73;6.43;;;;;;;;;;5096907;28;20085;-50
2022/03/20 04:31:10;;;;;;;9.40;5.80;;;;;;;;;;5095184;28;20503;-48
2022/03/20 04:33:35;;;;;;;13.48;5.93;;;;;;;;;;5095643;28;20118;-47
2022/03/20 04:36:01;;;;;;;21.77;6.40;;;;;;;;;;5097390;28;20762;-45
2022/03/20 04:38:27;;;;;;;12.18;5.60;;;;;;;;;;5091573;28;20085;-47
2022/03/20 04:40:53;;;;;;;10.50;5.30;;;;;;;;;;5095073;28;20115;-45
2022/03/20 04:43:18;;;;;;;14.63;7.15;;;;;;;;;;5094980;28;20088;-48
2022/03/20 04:45:44;;;;;;;26.55;6.57;;;;;;;;;;5096850;28;20978;-49
2022/03/20 04:59:05;;;;;;;7.85;5.28;;;;;;;;;;5096221;28;20088;-52
2022/03/20 05:01:30;;;;;;;8.23;5.10;;;;;;;;;;5096887;28;20031;-45
2022/03/20 05:03:55;;;;;;;8.52;3.72;;;;;;;;;;5095582;28;20466;-50
2022/03/20 05:06:21;;;;;;;7.72;3.60;;;;;;;;;;5093965;28;20039;-50
2022/03/20 05:08:46;;;;;;;8.43;5.25;;;;;;;;;;5098705;28;20220;-52
2022/03/20 05:13:55;;;;;;;6.22;4.63;;;;;;;;;;5094515;28;20061;-47
2022/03/20 05:16:21;;;;;;;6.88;4.35;;;;;;;;;;5099487;28;20051;-46
2022/03/20 05:18:46;;;;;;;8.63;5.25;;;;;;;;;;5095508;28;20047;-50
2022/03/20 05:21:12;;;;;;;5.68;4.78;;;;;;;;;;5097032;28;20036;-48
2022/03/20 05:23:37;;;;;;;8.43;5.63;;;;;;;;;;5096326;28;20498;-46
2022/03/20 05:26:03;;;;;;;6.20;3.95;;;;;;;;;;5096056;28;20050;-47
2022/03/20 05:28:28;;;;;;;6.15;4.63;;;;;;;;;;5095218;28;20465;-46
2022/03/20 05:30:54;;;;;;;9.95;4.70;;;;;;;;;;5095833;28;20047;-46
2022/03/20 05:33:19;;;;;;;8.43;3.80;;;;;;;;;;5099689;28;20036;-46
2022/03/20 05:35:45;;;;;;;6.75;4.70;;;;;;;;;;5097399;28;20055;-47
2022/03/20 05:38:11;;;;;;;8.75;5.25;;;;;;;;;;5094707;28;20487;-47
2022/03/20 05:40:37;;;;;;;12.25;3.80;;;;;;;;;;5096643;28;20051;-46
2022/03/20 05:43:03;;;;;;;8.75;4.25;;;;;;;;;;5092957;28;20107;-48
2022/03/20 05:45:28;;;;;;;6.80;5.32;;;;;;;;;;5092093;28;20192;-49
2022/03/20 05:47:53;;;;;;;8.07;4.85;;;;;;;;;;5093081;28;20031;-51
2022/03/20 05:50:19;;;;;;;10.15;6.30;;;;;;;;;;5093632;28;20056;-47
2022/03/20 05:52:44;;;;;;;12.40;9.68;;;;;;;;;;5096986;28;20031;-51
2022/03/20 05:55:09;;;;;;;25.13;13.95;;;;;;;;;;5103720;28;20051;-51
2022/03/20 06:00:23;;;;;;;9.00;5.43;;;;;;;;;;5096354;28;20158;-47
2022/03/20 06:02:48;;;;;;;8.10;5.45;;;;;;;;;;5102254;28;20574;-50
2022/03/20 06:05:13;;;;;;;9.70;6.60;;;;;;;;;;5096510;27;20130;-48
2022/03/20 06:07:43;;;;;;;9.30;5.50;;;;;;;;;;5101793;28;20063;-50
2022/03/20 06:10:11;;;;;;;14.00;6.40;;;;;;;;;;5098294;28;20127;-48
2022/03/20 06:12:37;;;;;;;10.98;5.90;;;;;;;;;;5098551;28;20546;-44
2022/03/20 06:15:03;;;;;;;12.75;5.53;;;;;;;;;;5100198;28;20185;-48
2022/03/20 06:17:28;;;;;;;7.20;6.20;;;;;;;;;;5100189;28;20027;-45
2022/03/20 06:19:54;;;;;;;10.68;5.43;;;;;;;;;;5100824;28;20040;-48
2022/03/20 06:22:19;;;;;;;8.80;5.63;;;;;;;;;;5097169;28;20451;-50
2022/03/20 06:24:44;;;;;;;11.32;4.85;;;;;;;;;;5099701;28;20044;-47
2022/03/20 06:27:10;;;;;;;10.98;5.28;;;;;;;;;;5099936;28;20122;-50
2022/03/20 06:29:35;;;;;;;5.22;4.13;;;;;;;;;;5100266;28;20093;-49
2022/03/20 06:32:00;;;;;;;23.45;7.70;;;;;;;;;;5100813;28;20269;-46
2022/03/20 06:34:26;;;;;;;11.00;5.25;;;;;;;;;;5098447;28;20040;-49
2022/03/20 06:36:55;;;;;;;7.55;5.75;;;;;;;;;;5098963;28;20124;-50
2022/03/20 06:39:21;;;;;;;8.05;5.70;;;;;;;;;;5098268;28;20217;-44
2022/03/20 06:41:46;;;;;;;8.10;6.07;;;;;;;;;;5096900;28;20537;-46
2022/03/20 06:44:15;;;;;;;13.57;7.03;;;;;;;;;;5098153;28;20043;-48
2022/03/20 06:46:41;;;;;;;15.23;7.65;;;;;;;;;;5096111;28;20040;-49
2022/03/20 06:49:08;;;;;;;10.77;5.72;;;;;;;;;;5098998;28;20043;-46
2022/03/20 06:51:33;;;;;;;10.45;5.63;;;;;;;;;;5095442;28;20109;-45
2022/03/20 06:53:59;;;;;;;13.00;6.55;;;;;;;;;;5099232;28;20043;-54
2022/03/20 06:56:24;;;;;;;19.63;7.78;;;;;;;;;;5098861;28;20065;-48
2022/03/20 06:58:49;;;;;;;25.50;9.35;;;;;;;;;;5100893;28;20044;-48
2022/03/20 07:01:15;;;;;;;11.55;8.65;;;;;;;;;;5097398;28;20061;-51
2022/03/20 07:03:40;;;;;;;34.50;9.07;;;;;;;;;;5102439;28;20055;-50
2022/03/20 07:06:05;;;;;;;22.92;8.88;;;;;;;;;;5099576;28;20046;-51
2022/03/20 07:08:30;;;;;;;20.02;7.90;;;;;;;;;;5097499;28;20107;-52
2022/03/20 07:10:56;;;;;;;32.30;9.38;;;;;;;;;;5103745;28;20152;-49
2022/03/20 07:16:05;;;;;;;15.82;6.60;;;;;;;;;;5098216;28;20101;-46
2022/03/20 07:18:31;;;;;;;22.17;8.45;;;;;;;;;;5096474;28;20056;-48
2022/03/20 07:20:56;;;;;;;19.35;7.78;;;;;;;;;;5097886;28;20518;-46
2022/03/20 07:23:22;;;;;;;18.65;8.48;;;;;;;;;;5101968;28;20048;-48
2022/03/20 07:31:33;;;;;;;15.10;8.98;;;;;;;;;;5091607;28;20055;-47
2022/03/20 07:33:58;;;;;;;12.73;8.13;;;;;;;;;;5097583;28;20061;-51
2022/03/20 07:36:23;;;;;;;22.88;8.48;;;;;;;;;;5099470;27;20043;-47
2022/03/20 07:38:50;;;;;;;12.38;6.63;;;;;;;;;;5096932;28;20054;-49
2022/03/20 07:41:15;;;;;;;13.68;6.47;;;;;;;;;;5097699;28;20137;-45
2022/03/20 07:43:41;;;;;;;19.10;7.00;;;;;;;;;;5095602;28;20186;-45
2022/03/20 07:46:06;;;;;;;10.68;7.45;;;;;;;;;;5099108;28;20035;-46
2022/03/20 07:48:31;;;;;;;20.75;9.63;;;;;;;;;;5099845;28;20113;-45
2022/03/20 07:50:58;;;;;;;22.95;8.25;;;;;;;;;;5097864;28;20056;-47
2022/03/20 07:53:24;;;;;;;17.75;8.88;;;;;;;;;;5097456;28;20381;-50
2022/03/20 07:55:49;;;;;;;10.07;7.30;;;;;;;;;;5097697;28;20565;-47
2022/03/20 07:58:18;;;;;;;19.10;10.45;;;;;;;;;;5096921;28;20071;-47
2022/03/20 08:00:43;;;;;;;25.25;9.70;;;;;;;;;;5100004;28;20048;-45
2022/03/20 08:03:08;;;;;;;32.25;11.45;;;;;;;;;;5100651;28;20080;-45
2022/03/20 08:05:34;;;;;;;23.20;11.68;;;;;;;;;;5098591;28;20091;-45
2022/03/20 08:08:02;;;;;;;27.10;20.75;;;;;;;;;;5096876;28;20123;-47
2022/03/20 08:10:28;;;;;;;27.23;14.32;;;;;;;;;;5095080;28;20047;-46
2022/03/20 08:12:53;;;;;;;22.00;15.30;;;;;;;;;;5098643;28;20028;-48
2022/03/20 08:15:18;;;;;;;29.55;18.50;;;;;;;;;;5094163;28;20039;-51
2022/03/20 08:17:44;;;;;;;13.68;6.25;;;;;;;;;;5097447;28;20051;-49
2022/03/20 08:20:10;;;;;;;13.68;6.82;;;;;;;;;;5094086;28;20131;-46
2022/03/20 08:22:37;;;;;;;15.65;7.72;;;;;;;;;;5093698;28;20087;-46
2022/03/20 08:25:03;;;;;;;16.70;7.32;;;;;;;;;;5101451;28;20474;-46
2022/03/20 08:27:28;;;;;;;20.23;7.30;;;;;;;;;;5100279;28;20036;-47
2022/03/20 08:29:54;;;;;;;21.23;8.15;;;;;;;;;;5098551;28;20039;-50
2022/03/20 08:32:21;;;;;;;19.63;7.10;;;;;;;;;;5093776;28;20101;-47
2022/03/20 08:34:47;;;;;;;28.60;8.40;;;;;;;;;;5095509;28;20066;-50
2022/03/20 08:37:14;;;;;;;12.90;6.05;;;;;;;;;;5099255;28;20047;-44
2022/03/20 08:39:39;;;;;;;20.70;8.38;;;;;;;;;;5099518;28;20062;-45
2022/03/20 08:42:05;;;;;;;13.05;6.88;;;;;;;;;;5097392;28;20039;-49
2022/03/20 08:44:31;;;;;;;16.48;9.65;;;;;;;;;;5097802;28;20100;-47
2022/03/20 08:46:56;;;;;;;31.30;11.68;;;;;;;;;;5095012;28;20177;-46
2022/03/20 08:49:21;;;;;;;21.55;9.60;;;;;;;;;;5099003;28;20533;-48
2022/03/20 08:51:46;;;;;;;15.75;9.40;;;;;;;;;;5097768;28;20036;-49
2022/03/20 08:54:12;;;;;;;17.52;10.18;;;;;;;;;;5096895;28;20051;-47
2022/03/20 08:56:38;;;;;;;31.02;7.43;;;;;;;;;;5097209;28;20104;-55
2022/03/20 08:59:03;;;;;;;12.35;7.82;;;;;;;;;;5097095;28;20115;-56
2022/03/20 09:01:30;;;;;;;17.33;7.20;;;;;;;;;;5095627;28;20615;-59
2022/03/20 09:03:55;;;;;;;16.83;8.63;;;;;;;;;;5096208;28;20134;-52
2022/03/20 09:06:21;;;;;;;18.00;8.95;;;;;;;;;;5097184;28;20143;-55
2022/03/20 09:08:46;;;;;;;20.33;8.48;;;;;;;;;;5095285;28;20042;-54
2022/03/20 09:11:12;;;;;;;19.75;9.65;;;;;;;;;;5093425;28;20090;-56
2022/03/20 09:13:37;;;;;;;18.30;8.60;;;;;;;;;;5095065;28;20040;-56
2022/03/20 09:18:59;;;;;;;14.77;7.22;;;;;;;;;;5096323;28;20544;-52
2022/03/20 09:21:25;;;;;;;10.10;6.90;;;;;;;;;;5090079;28;20067;-50
2022/03/20 09:23:50;;;;;;;19.27;6.25;;;;;;;;;;5097396;28;20066;-47
2022/03/20 09:26:15;;;;;;;13.35;8.00;;;;;;;;;;5091660;28;20490;-49
2022/03/20 09:28:41;;;;;;;16.17;8.48;;;;;;;;;;5095255;28;20050;-51
2022/03/20 09:31:08;;;;;;;13.57;8.20;;;;;;;;;;5096586;28;20051;-49
2022/03/20 09:33:34;;;;;;;12.70;6.95;;;;;;;;;;5098359;28;20054;-48
2022/03/20 09:35:59;;;;;;;18.67;8.98;;;;;;;;;;5096814;28;20047;-48
2022/03/20 09:38:26;;;;;;;10.45;6.40;;;;;;;;;;5097676;27;20048;-46
2022/03/20 09:40:51;;;;;;;10.10;7.18;;;;;;;;;;5098593;28;20044;-49
2022/03/20 09:43:17;;;;;;;12.68;4.82;;;;;;;;;;5098737;28;20088;-48
2022/03/20 09:45:43;;;;;;;7.43;4.43;;;;;;;;;;5093221;28;20043;-49
2022/03/20 09:48:08;;;;;;;7.55;3.30;;;;;;;;;;5094926;28;20035;-53
2022/03/20 09:50:34;;;;;;;7.95;2.58;;;;;;;;;;5094083;28;20552;-50
2022/03/20 09:52:59;;;;;;;5.75;3.92;;;;;;;;;;5096230;28;20066;-52
2022/03/20 09:55:25;;;;;;;6.07;3.15;;;;;;;;;;5097357;28;20058;-55
2022/03/20 09:57:54;;;;;;;11.55;5.88;;;;;;;;;;5095894;28;20366;-51
2022/03/20 10:00:20;;;;;;;4.82;3.35;;;;;;;;;;5095746;28;20036;-50
2022/03/20 10:02:45;;;;;;;7.25;2.97;;;;;;;;;;5095618;28;20039;-51
2022/03/20 10:05:10;;;;;;;6.75;3.22;;;;;;;;;;5098112;27;20046;-51
2022/03/20 10:07:42;;;;;;;8.25;3.00;;;;;;;;;;5099351;28;20836;-50
2022/03/20 10:10:08;;;;;;;8.00;3.15;;;;;;;;;;5099312;28;20051;-48
2022/03/20 10:12:35;;;;;;;5.38;3.60;;;;;;;;;;5098465;28;20048;-52
2022/03/20 10:15:02;;;;;;;7.75;3.28;;;;;;;;;;5097592;28;20426;-50
2022/03/20 10:17:27;;;;;;;9.70;4.25;;;;;;;;;;5096744;28;20080;-51
2022/03/20 10:19:53;;;;;;;4.70;3.58;;;;;;;;;;5094296;28;20044;-50
2022/03/20 10:22:18;;;;;;;5.45;2.95;;;;;;;;;;5098368;28;20111;-49
2022/03/20 10:24:50;;;;;;;7.25;3.05;;;;;;;;;;5099748;28;20077;-49
2022/03/20 10:27:16;;;;;;;6.00;4.20;;;;;;;;;;5100048;27;20611;-49
2022/03/20 10:29:48;;;;;;;11.48;4.80;;;;;;;;;;5093755;28;20044;-51
2022/03/20 10:32:14;;;;;;;6.63;2.60;;;;;;;;;;5094139;28;20090;-49
2022/03/20 10:34:46;;;;;;;12.57;3.38;;;;;;;;;;5096062;28;21077;-48
2022/03/20 10:37:11;;;;;;;10.65;5.65;;;;;;;;;;5096822;28;20541;-50
2022/03/20 10:39:36;;;;;;;9.27;4.68;;;;;;;;;;5096571;28;20042;-47
2022/03/20 10:42:02;;;;;;;11.68;3.22;;;;;;;;;;5096958;28;20093;-53
2022/03/20 10:44:27;;;;;;;15.80;6.07;;;;;;;;;;5097783;28;20040;-53
2022/03/20 10:46:55;;;;;;;11.25;4.10;;;;;;;;;;5096656;28;20075;-51
2022/03/20 10:49:20;;;;;;;10.77;2.10;;;;;;;;;;5096165;28;20189;-49
2022/03/20 10:51:59;;;;;;;8.45;3.50;;;;;;;;;;5098160;28;20572;-49
2022/03/20 10:54:37;;;;;;;10.60;5.82;;;;;;;;;;5100147;28;20052;-52
2022/03/20 10:57:05;;;;;;;7.68;3.97;;;;;;;;;;5093663;28;20055;-50
2022/03/20 10:59:30;;;;;;;12.88;4.35;;;;;;;;;;5096888;28;20659;-50
2022/03/20 11:01:57;;;;;;;10.02;4.57;;;;;;;;;;5100776;28;20146;-47
2022/03/20 11:04:23;;;;;;;12.35;3.92;;;;;;;;;;5098144;28;20190;-51
2022/03/20 11:06:49;;;;;;;12.95;3.78;;;;;;;;;;5097386;28;20426;-48
2022/03/20 11:09:15;;;;;;;17.42;11.57;;;;;;;;;;5099093;28;20036;-50
2022/03/20 11:11:40;;;;;;;8.13;5.40;;;;;;;;;;5098358;28;20031;-52
2022/03/20 11:14:05;;;;;;;6.38;4.13;;;;;;;;;;5098051;28;20054;-49
2022/03/20 11:16:34;;;;;;;18.83;4.10;;;;;;;;;;5098173;28;20096;-50
2022/03/20 11:18:59;;;;;;;7.35;3.25;;;;;;;;;;5096191;28;20044;-48
2022/03/20 11:21:26;;;;;;;8.52;4.47;;;;;;;;;;5098813;28;20046;-46
2022/03/20 11:23:52;;;;;;;8.73;3.85;;;;;;;;;;5095276;28;20461;-54
2022/03/20 11:26:19;;;;;;;3.97;1.90;;;;;;;;;;5095294;28;20031;-51
2022/03/20 11:28:45;;;;;;;9.05;4.45;;;;;;;;;;5095137;28;20040;-50
2022/03/20 11:31:11;;;;;;;8.27;3.78;;;;;;;;;;5097146;28;20402;-53
2022/03/20 11:33:37;;;;;;;6.32;2.88;;;;;;;;;;5098067;28;20032;-52
2022/03/20 11:36:03;;;;;;;16.00;2.92;;;;;;;;;;5096403;28;20361;-49
2022/03/20 11:38:29;;;;;;;10.10;3.72;;;;;;;;;;5096304;28;20039;-49
2022/03/20 11:41:03;;;;;;;6.68;2.13;;;;;;;;;;5098396;28;20058;-51
2022/03/20 11:43:29;;;;;;;8.95;3.30;;;;;;;;;;5097701;28;20502;-53
2022/03/20 11:46:13;;;;;;;4.55;2.60;;;;;;;;;;5097206;28;20051;-51
2022/03/20 11:48:38;;;;;;;4.00;2.70;;;;;;;;;;5098943;28;20458;-50
2022/03/20 11:51:03;;;;;;;5.57;2.58;;;;;;;;;;5094329;28;20032;-51
2022/03/20 11:53:30;;;;;;;5.18;3.50;;;;;;;;;;5096469;28;20049;-54
2022/03/20 11:55:56;;;;;;;13.65;3.63;;;;;;;;;;5094706;28;20558;-54
2022/03/20 11:58:21;;;;;;;3.38;2.00;;;;;;;;;;5096912;28;20122;-50
2022/03/20 12:01:02;;;;;;;4.40;2.33;;;;;;;;;;5099853;28;20036;-52
2022/03/20 12:03:37;;;;;;;5.88;2.08;;;;;;;;;;5098449;28;20067;-52
2022/03/20 12:06:15;;;;;;;15.43;3.05;;;;;;;;;;5100645;28;20042;-48
2022/03/20 12:08:44;;;;;;;11.48;2.95;;;;;;;;;;5096893;28;20040;-53
2022/03/20 12:11:28;;;;;;;13.43;3.30;;;;;;;;;;5099632;28;20173;-52
2022/03/20 12:13:59;;;;;;;10.15;3.70;;;;;;;;;;5096128;28;20565;-49
2022/03/20 12:16:43;;;;;;;4.10;1.88;;;;;;;;;;5096786;28;20077;-48
2022/03/20 12:19:11;;;;;;;7.43;2.33;;;;;;;;;;5097253;28;20546;-51
2022/03/20 12:21:53;;;;;;;8.55;2.63;;;;;;;;;;5097912;28;20040;-53
2022/03/20 12:24:38;;;;;;;7.82;3.33;;;;;;;;;;5097337;28;20495;-54
2022/03/20 12:27:25;;;;;;;11.52;5.60;;;;;;;;;;5084743;28;20044;-52
2022/03/20 12:29:53;;;;;;;4.55;2.90;;;;;;;;;;5096269;28;20502;-50
2022/03/20 12:32:22;;;;;;;7.85;3.53;;;;;;;;;;5094860;28;20059;-49
2022/03/20 12:34:57;;;;;;;12.23;4.03;;;;;;;;;;5094057;28;20050;-48
2022/03/20 12:37:37;;;;;;;9.35;3.55;;;;;;;;;;5096323;28;20126;-48
2022/03/20 12:40:02;;;;;;;10.50;3.50;;;;;;;;;;5097807;28;20431;-46
2022/03/20 12:42:28;;;;;;;4.38;2.75;;;;;;;;;;5090204;28;20597;-47
2022/03/20 12:44:54;;;;;;;14.02;4.47;;;;;;;;;;5094786;28;20044;-48
2022/03/20 12:47:20;;;;;;;3.70;1.80;;;;;;;;;;5096551;28;20047;-47
2022/03/20 12:50:06;;;;;;;4.93;2.65;;;;;;;;;;5095576;28;20531;-50
2022/03/20 12:52:32;;;;;;;20.83;6.47;;;;;;;;;;5093627;28;20480;-47
2022/03/20 12:54:59;;;;;;;9.25;5.35;;;;;;;;;;5091904;28;20805;-52
2022/03/20 12:57:37;;;;;;;6.40;4.45;;;;;;;;;;5096333;28;20051;-52
2022/03/20 13:00:10;;;;;;;10.43;4.18;;;;;;;;;;5095237;28;20195;-49
2022/03/20 13:02:54;;;;;;;7.57;3.97;;;;;;;;;;5093440;28;20055;-48
2022/03/20 13:05:20;;;;;;;18.80;6.60;;;;;;;;;;5096799;28;20050;-48
2022/03/20 13:07:45;;;;;;;7.90;4.20;;;;;;;;;;5092749;28;20631;-51
2022/03/20 13:10:13;;;;;;;14.15;3.85;;;;;;;;;;5094917;28;20035;-49
2022/03/20 13:12:49;;;;;;;8.02;3.85;;;;;;;;;;5099218;28;20059;-49
2022/03/20 13:15:27;;;;;;;5.90;2.38;;;;;;;;;;5096111;28;20075;-49
2022/03/20 13:17:54;;;;;;;9.60;3.22;;;;;;;;;;5095143;28;20186;-48
2022/03/20 13:20:20;;;;;;;16.83;4.05;;;;;;;;;;5094206;28;20502;-50
2022/03/20 13:22:45;;;;;;;8.30;3.00;;;;;;;;;;5091197;28;20048;-48
2022/03/20 13:25:18;;;;;;;8.55;2.65;;;;;;;;;;5094393;28;20043;-48
2022/03/20 13:27:48;;;;;;;10.93;3.08;;;;;;;;;;5097289;28;20115;-49
2022/03/20 13:30:14;;;;;;;11.63;3.38;;;;;;;;;;5094731;28;20811;-51
2022/03/20 13:32:41;;;;;;;15.73;3.17;;;;;;;;;;5094253;28;20121;-51
2022/03/20 13:35:06;;;;;;;7.25;3.65;;;;;;;;;;5094288;28;20468;-49
2022/03/20 13:37:31;;;;;;;7.13;1.58;;;;;;;;;;5097856;28;20082;-48
2022/03/20 13:39:57;;;;;;;8.20;3.88;;;;;;;;;;5096317;28;20143;-53
2022/03/20 13:42:23;;;;;;;8.43;2.63;;;;;;;;;;5097598;28;20048;-51
2022/03/20 13:44:52;;;;;;;9.20;1.52;;;;;;;;;;5092315;28;20063;-47
2022/03/20 13:47:18;;;;;;;5.28;2.45;;;;;;;;;;5096863;28;20521;-48
2022/03/20 13:49:44;;;;;;;7.78;3.05;;;;;;;;;;5093379;28;20052;-50
2022/03/20 13:52:11;;;;;;;5.15;1.55;;;;;;;;;;5096372;28;20073;-52
2022/03/20 13:54:39;;;;;;;5.05;2.92;;;;;;;;;;5094442;28;20043;-49
2022/03/20 13:57:05;;;;;;;14.93;4.13;;;;;;;;;;5094883;28;20071;-50
2022/03/20 13:59:32;;;;;;;7.15;2.83;;;;;;;;;;5093853;28;20079;-48
2022/03/20 14:01:58;;;;;;;9.73;5.13;;;;;;;;;;5094199;28;20048;-49
2022/03/20 14:04:24;;;;;;;12.80;5.03;;;;;;;;;;5102646;28;20610;-50
2022/03/20 14:07:00;;;;;;;10.10;3.50;;;;;;;;;;5097592;28;20410;-49
2022/03/20 14:09:37;;;;;;;5.18;1.42;;;;;;;;;;5098681;28;20766;-48
2022/03/20 14:12:23;;;;;;;11.10;2.85;;;;;;;;;;5097598;28;20130;-49
2022/03/20 14:14:51;;;;;;;7.18;3.60;;;;;;;;;;5089241;28;20047;-54
2022/03/20 14:17:17;;;;;;;6.20;2.55;;;;;;;;;;5097040;28;20086;-48
2022/03/20 14:19:46;;;;;;;14.50;3.47;;;;;;;;;;5101003;28;20130;-51
2022/03/20 14:22:12;;;;;;;9.25;4.68;;;;;;;;;;5096465;28;20048;-51
2022/03/20 14:24:53;;;;;;;6.30;2.90;;;;;;;;;;5097446;28;20043;-48
2022/03/20 14:27:28;;;;;;;12.50;4.10;;;;;;;;;;5098923;28;20078;-48
2022/03/20 14:40:53;;;;;;;8.45;3.40;;;;;;;;;;5099957;28;20075;-51
2022/03/20 14:43:24;;;;;;;4.15;2.00;;;;;;;;;;5099213;28;20075;-49
2022/03/20 14:45:50;;;;;;;7.70;2.97;;;;;;;;;;5099521;28;20130;-51
2022/03/20 14:48:17;;;;;;;7.90;3.03;;;;;;;;;;5099181;28;20134;-51
2022/03/20 14:50:42;;;;;;;11.57;3.85;;;;;;;;;;5099348;28;20147;-45
2022/03/20 14:53:07;;;;;;;18.83;3.90;;;;;;;;;;5098756;28;20043;-50
2022/03/20 14:55:33;;;;;;;5.70;2.35;;;;;;;;;;5100023;28;20115;-48
2022/03/20 14:58:00;;;;;;;15.07;4.25;;;;;;;;;;5103141;28;20089;-49
2022/03/20 15:00:26;;;;;;;12.23;3.40;;;;;;;;;;5100583;28;20739;-49
2022/03/20 15:02:51;;;;;;;14.80;5.63;;;;;;;;;;5098311;28;20056;-49
2022/03/20 15:05:16;;;;;;;30.80;8.32;;;;;;;;;;5099773;28;20044;-50
2022/03/20 15:11:23;;;;;;;6.50;3.05;;;;;;;;;;5100397;28;20067;-49
2022/03/20 15:13:11;;;;;;;9.18;2.78;;;;;;;;;;5097804;28;20545;-49
2022/03/20 15:15:37;;;;;;;14.35;3.05;;;;;;;;;;5097687;28;20043;-52
2022/03/20 15:18:03;;;;;;;11.13;3.63;;;;;;;;;;5096809;28;20048;-50
2022/03/20 15:20:29;;;;;;;7.40;2.70;;;;;;;;;;5094722;28;20052;-49
2022/03/20 15:22:54;;;;;;;16.63;4.38;;;;;;;;;;5097870;28;20565;-49
2022/03/20 15:25:19;;;;;;;10.45;2.88;;;;;;;;;;5099149;28;20052;-49